»·PEaware :: N621KC KSBA-KONT

N621KC :: KSBA-KONT

FLIGHT INFORMATION

Flight Status: Arrived
Operator: Privately registered:
United States
More flights under this callsign
Pilot: Skye D. (10623)
Aircraft: EMBRAER BANDEIRANTE
(E110)
More flights by this aircraft type
Origin: KSBA Santa Barbara Mun
United States
Destination: KONT Ontario Intl
United States
More flights between these airports :: More routes between these airports
Route: +HENER FIM V186 ITSME V264 POM V197 PDZ
File this flight plan on PilotEdge
Remarks: SBAN17
Altitude:
(Current/Filed)
9,000ft
Speed:
(Current/Filed)
200kts
Departed: 06-Feb-18 10:58 AM
Arrived: 06-Feb-18 11:50 AM
Distance/Time
Traveled:
112nm/0:52
Distance/Time
To Go:
Arrived

Flight Plot

Page will automatically refresh every two minutes.


Map Options




Map Legend


Flown Route
Filed Route
Departure Airport
Arrival Airport
Navaid (VOR, NDB)
Fix

Horizontal Profiles

Position Reports

Time Latitude Longitude Heading Altitude Ground
Speed
06-Feb-18 10:41 34.422776 -119.835851 255 18ft 0kts
06-Feb-18 10:42 34.422776 -119.835851 255 18ft 0kts
06-Feb-18 10:43 34.422776 -119.835851 255 18ft 0kts
06-Feb-18 10:44 34.422776 -119.835851 255 18ft 0kts
06-Feb-18 10:45 34.422776 -119.835851 255 18ft 0kts
06-Feb-18 10:46 34.422776 -119.835851 255 18ft 0kts
06-Feb-18 10:47 34.422776 -119.835851 255 18ft 0kts
06-Feb-18 10:48 34.422776 -119.835851 255 18ft 0kts
06-Feb-18 10:49 34.422776 -119.835851 255 18ft 0kts
06-Feb-18 10:50 34.422776 -119.835851 255 18ft 0kts
06-Feb-18 10:51 34.422776 -119.835851 255 18ft 0kts
06-Feb-18 10:52 34.422776 -119.835851 255 18ft 0kts
06-Feb-18 10:53 34.422776 -119.835851 255 18ft 0kts
06-Feb-18 10:54 34.422776 -119.835851 255 18ft 0kts
06-Feb-18 10:55 34.422776 -119.835851 255 18ft 0kts
06-Feb-18 10:56 34.422776 -119.835851 255 18ft 0kts
06-Feb-18 10:57 34.422776 -119.835851 255 18ft 0kts
06-Feb-18 10:58 34.422776 -119.835851 255 18ft 0kts
06-Feb-18 10:59 34.422776 -119.835851 255 18ft 0kts
06-Feb-18 11:00 34.422665 -119.836775 272 18ft 0kts
06-Feb-18 11:01 34.422683 -119.837051 287 18ft 4kts
06-Feb-18 11:02 34.426376 -119.838241 346 18ft 20kts
06-Feb-18 11:03 34.430633 -119.839697 284 18ft 5kts
06-Feb-18 11:03 34.430641 -119.839786 269 18ft 0kts
06-Feb-18 11:05 34.425658 -119.838759 164 18ft 101kts
06-Feb-18 11:06 34.392311 -119.829458 167 1336ft 122kts
06-Feb-18 11:07 34.356416 -119.821226 165 2501ft 130kts
06-Feb-18 11:07 34.323469 -119.815700 182 2946ft 168kts
06-Feb-18 11:08 34.273880 -119.813807 163 2962ft 193kts
06-Feb-18 11:09 34.263413 -119.761072 80 3829ft 165kts
06-Feb-18 11:10 34.268343 -119.707129 80 4853ft 160kts
06-Feb-18 11:12 34.272074 -119.643399 88 6033ft 166kts
06-Feb-18 11:12 34.270190 -119.596917 88 6806ft 168kts
06-Feb-18 11:13 34.267860 -119.536010 89 6961ft 193kts
06-Feb-18 11:15 34.264864 -119.460330 89 6957ft 195kts
06-Feb-18 11:15 34.262618 -119.402611 89 6959ft 216kts
06-Feb-18 11:16 34.259711 -119.329239 89 6957ft 223kts
06-Feb-18 11:17 34.257143 -119.260075 89 6964ft 225kts
06-Feb-18 11:18 34.254307 -119.189246 90 6964ft 225kts
06-Feb-18 11:19 34.251257 -119.116723 90 6964ft 224kts
06-Feb-18 11:20 34.248066 -119.042507 90 6964ft 225kts
06-Feb-18 11:21 34.244951 -118.968997 90 6964ft 226kts
06-Feb-18 11:22 34.241735 -118.894906 90 6968ft 231kts
06-Feb-18 11:23 34.238810 -118.829378 90 7826ft 222kts
06-Feb-18 11:24 34.235922 -118.764915 89 8729ft 217kts
06-Feb-18 11:25 34.227686 -118.694360 104 8981ft 237kts
06-Feb-18 11:26 34.210528 -118.628428 105 8977ft 238kts
06-Feb-18 11:27 34.198456 -118.561188 96 8978ft 234kts
06-Feb-18 11:28 34.188308 -118.492824 97 8978ft 233kts
06-Feb-18 11:29 34.178106 -118.426022 97 8978ft 233kts
06-Feb-18 11:30 34.167623 -118.357943 97 8978ft 233kts
06-Feb-18 11:31 34.157842 -118.293283 97 8977ft 232kts
06-Feb-18 11:32 34.147191 -118.223990 97 8976ft 233kts
06-Feb-18 11:33 34.137672 -118.163107 97 8978ft 235kts
06-Feb-18 11:34 34.127541 -118.098442 97 8987ft 236kts
06-Feb-18 11:35 34.117884 -118.036842 97 8987ft 236kts
06-Feb-18 11:36 34.106665 -117.965338 97 8982ft 237kts
06-Feb-18 11:37 34.095370 -117.893598 97 8487ft 243kts
06-Feb-18 11:38 34.084019 -117.822424 97 7859ft 241kts
06-Feb-18 11:39 34.082313 -117.755727 81 6930ft 209kts
06-Feb-18 11:40 34.088126 -117.701841 78 6520ft 195kts
06-Feb-18 11:41 34.094591 -117.644593 78 5677ft 205kts
06-Feb-18 11:42 34.101439 -117.582768 78 4998ft 193kts
06-Feb-18 11:43 34.107034 -117.532059 78 5003ft 181kts
06-Feb-18 11:44 34.112843 -117.479681 78 5008ft 184kts
06-Feb-18 11:45 34.119039 -117.423824 78 5013ft 188kts
06-Feb-18 11:46 34.119987 -117.363214 99 4684ft 207kts
06-Feb-18 11:47 34.107606 -117.298939 100 4093ft 206kts
06-Feb-18 11:48 34.075142 -117.271661 224 4073ft 182kts
06-Feb-18 11:49 34.057380 -117.317271 271 4070ft 169kts
06-Feb-18 11:50 34.056847 -117.369346 273 4079ft 171kts
06-Feb-18 11:51 34.056799 -117.423431 272 3535ft 167kts
06-Feb-18 11:52 34.057138 -117.467744 268 2822ft 143kts
06-Feb-18 11:53 34.056846 -117.510453 271 2099ft 121kts
06-Feb-18 11:54 34.056897 -117.548471 269 1517ft 130kts
06-Feb-18 11:55 34.056889 -117.583243 271 960ft 103kts
06-Feb-18 11:56 34.056929 -117.598682 271 948ft 39kts
06-Feb-18 11:57 34.057650 -117.599899 3 948ft 3kts
06-Feb-18 11:58 34.057930 -117.603536 270 948ft 29kts
06-Feb-18 11:59 34.057888 -117.610560 270 948ft 21kts
06-Feb-18 12:00 34.057916 -117.617629 270 948ft 26kts
06-Feb-18 12:01 34.058464 -117.621846 0 948ft 11kts
06-Feb-18 12:02 34.059245 -117.621196 92 948ft 0kts
06-Feb-18 12:03 34.059245 -117.621196 92 948ft 0kts

Navigation Log

Ident Type
Flight plan parsing failed, navigation log unavailable